Walterboro, SC (29488)

5:00 PM EDT on July 24, 2014 (GMT -0400)
KQ4WH, Skunkworks (KSCSMOAK1) Elev 108 ft | 33.09 °N, 80.81 °W | Change Station

Current weather conditions updated 10 seconds ago

Partly Cloudy
Partly Cloudy
92.0 °F
Feels Like 102 °F
N
4.4
Wind Variable Wind from SW
Gusts 12.1 mph

Tomorrow is forecast to be Cooler than today. Afternoon thunderstorms.

Today
High -- | Low -- °F
--% Chance of Precip.
Yesterday
High -- | Low -- °F
Precip. -- in
6:30 AM 8:27 PM
Waning Crescent, 4% visible
Pressure 29.89 in
Visibility 10.0 miles
Clouds Clear
Heat Index 102 °F
Dew Point 74 °F
Humidity 56%
Rainfall 0.00 in
Snow Depth Not available.
UV 6 out of 12
Pollen 4.50 out of 12
Air Quality Not available.
Flu Activity Not available.
METAR KDYB 242055Z AUTO 22005KT 10SM CLR 34/22 A2989 RMK AO1

More Conditions Fewer Conditions

Pressure 29.89 in
Visibility 10.0 miles
Clouds Clear
Heat Index 102 °F
Dew Point 74 °F
Humidity 56%
Rainfall 0.00 in
Snow Depth Not available.
UV 6 out of 12
Pollen 4.50 out of 12
Air Quality Not available.
Flu Activity Not available.
METAR KDYB 242055Z AUTO 22005KT 10SM CLR 34/22 A2989 RMK AO1

More Conditions Fewer Conditions

10-Day Weather Forecast

Almanac

Astronomy

Jul. 24, 2014 Rise Set
Actual Time 6:30 AM EDT 8:27 PM EDT
Civil Twilight 6:03 AM EDT 8:54 PM EDT
Nautical Twilight 5:29 AM EDT 9:27 PM EDT
Astronomical Twilight 4:54 AM EDT 10:03 PM EDT
Moon 4:36 AM EDT 6:42 PM EDT
Length of Visible Light 14h 51m
Length of Day
13h 56m
Tomorrow will be 1m 19s shorter.
Waning Crescent, 4% of the Moon is Illuminated
Today
Waning Crescent
Jul 26
New
Aug 3
First Quarter
Aug 10
Full
Aug 17
Last Quarter

Today's Extremes

State Highs State Lows

Community

WunderPhotos

Upload Photos

1,737,129 photos uploaded!

WunderBlogs® & News

Nearby

Snow Depth

Station Depth Elevation
No new snow has been reported.

Earthquake Activity

City Distance Mag. Time & Date
No recent earthquake activity has been reported nearby.
Minimum magnitude displayed is 2.5.

Coastal Water Temperatures

Place Temperature
No Stations Reporting

Nearby Weather Stations

Station Location Temp. Heat Index Dew Point Humidity Wind Precip. Elev Updated Type
KQ4WH, Skunkworks, Smoaks, SC 92.0 °F 102 °F 74 °F 56% SW  at  4.4 mph 0.00 in / hr 108 ft 5:00 PM EDT Rapid Fire
RAWS SAVANNAH PORTABLE SC, Yemassee, SC 93 °F 102 °F 73 °F 52% West  at  3 mph 0.00 in / hr 6 ft 3:23 PM EDT MADIS
RAWS ACE BASIN SC, Green Pond, SC 93 °F 102 °F 73 °F 52% SW  at  10 mph 0.00 in / hr 8 ft 3:55 PM EDT MADIS
3 Miles North of Hwy's 17 & 165 (Hyde Pa, Ravenel, SC 93.2 °F 112 °F 80 °F 65% South  at  2.7 mph 0.00 in / hr 43 ft 5:00 PM EDT Rapid Fire

Show More Stations Show Fewer Stations